Estación Meteorológica Peña el Pijo (Robertgarden) [ 05/26/19 18:43:40 CEST ]

Fecha Hora Presion(HPa) Temp (°C) Humedad % Rocio (°C) Viento ( m/s) Direccion Lluvia 1Hora(mm) Lluvia 24H(mm) LLuvia Total(mm)
2019-Jan-20 01:01:46 999.000 6.4 78 2.8 1.3 NW     161.09
2019-Jan-20 02:03:08 998.800 5.5 79 2.1         161.09
2019-Jan-20 03:01:55 998.200 5.3 80 2.1         161.09
2019-Jan-20 04:01:40 997.600 5.4 81 2.4         161.09
2019-Jan-20 05:01:51 997.000 5.3 82 2.4         161.09
2019-Jan-20 06:01:44 996.500 5.3 83 2.6         161.09
2019-Jan-20 07:01:47 996.700 5.3 84 2.8     0.51 0.51 161.61
2019-Jan-20 08:01:51 997.100 4.9 84 2.4     1.03 1.55 162.65
2019-Jan-20 09:01:49 997.200 4.4 85 2.1     0.51 2.07 163.17
2019-Jan-20 10:01:56 997.000 5.6 86 3.4       2.07 163.17
2019-Jan-20 11:01:39 997.900 6.7 85 4.3     0.51 2.59 163.68
2019-Jan-20 12:01:44 998.700 6.3 81 3.3       2.59 163.68
2019-Jan-20 13:01:34 998.700 7.4 80 4.2 1.7 WNW   2.59 163.68
2019-Jan-20 14:01:48 999.000 5.5 79 2.1       2.59 163.68
2019-Jan-20 15:01:38 999.500 5.1 80 1.9       2.59 163.68
2019-Jan-20 16:01:36 1000.200 5.4 79 2.0       2.59 163.68
2019-Jan-20 17:01:42 1000.800 5.8 73 1.3       2.59 163.68
2019-Jan-20 18:01:44 1001.300 5.6 71 0.8       2.59 163.68
2019-Jan-20 19:01:43 1002.100 5.3 70 0.3       2.59 163.68
2019-Jan-20 20:01:47 1002.600 5.1 69 -0.1       2.59 163.68
2019-Jan-20 21:01:38 1003.300 5.0 68 -0.4       2.59 163.68
2019-Jan-20 22:01:46 1003.600 4.9 69 -0.3       2.59 163.68
2019-Jan-20 23:01:51 1004.800 4.5 69 -0.7       2.59 163.68

Temperatura Máxima:    Temperatura Mínima:
Presión Máxima:1004.800 Hpa    Presión Mínima:996.500 Hpa


Volver